createdAt,value
2022-09-28T00:00:54.040Z,967.2
2022-09-28T00:02:55.668Z,967.1
2022-09-28T00:04:56.669Z,967.2
2022-09-28T00:06:58.228Z,967.4
2022-09-28T00:08:59.409Z,967.3
2022-09-28T00:11:00.885Z,967.2
2022-09-28T00:13:02.078Z,967.2
2022-09-28T00:15:03.505Z,967.1
2022-09-28T00:17:04.865Z,967
2022-09-28T00:19:05.908Z,967.1
2022-09-28T00:21:06.967Z,967
2022-09-28T00:23:08.412Z,967.1
2022-09-28T00:25:10.354Z,967
2022-09-28T00:27:11.487Z,967
2022-09-28T00:29:13.291Z,966.9
2022-09-28T00:31:14.881Z,966.9
2022-09-28T00:33:15.948Z,966.8
2022-09-28T00:35:17.092Z,966.7
2022-09-28T00:39:19.274Z,966.5
2022-09-28T00:41:21.038Z,966.5
2022-09-28T00:45:24.645Z,966.5
2022-09-28T00:47:26.275Z,966.4
2022-09-28T00:49:27.598Z,966.4
2022-09-28T00:51:29.141Z,966.3
2022-09-28T00:55:31.701Z,966.2
2022-09-28T00:57:33.049Z,966.2
2022-09-28T00:59:34.408Z,966.2
2022-09-28T01:01:35.768Z,966.1
2022-09-28T01:03:37.549Z,966.1
2022-09-28T01:05:39.212Z,966.1
2022-09-28T01:07:40.585Z,966.1
2022-09-28T01:09:41.927Z,965.9
2022-09-28T01:11:43.666Z,965.9
2022-09-28T01:13:45.293Z,965.9
2022-09-28T01:15:47.108Z,965.9
2022-09-28T01:17:48.775Z,965.9
2022-09-28T01:18:32.653Z,966
2022-09-28T01:20:34.102Z,965.8
2022-09-28T01:22:35.415Z,965.8
2022-09-28T01:24:36.898Z,965.8
2022-09-28T01:26:37.929Z,965.8
2022-09-28T01:28:39.206Z,965.9
2022-09-28T01:32:42.481Z,965.6
2022-09-28T01:34:44.395Z,965.6
2022-09-28T01:36:46.211Z,965.6
2022-09-28T01:38:47.728Z,965.6
2022-09-28T01:40:49.384Z,965.6
2022-09-28T01:42:50.715Z,965.6
2022-09-28T01:44:52.249Z,965.5
2022-09-28T01:46:53.363Z,965.5
2022-09-28T01:48:54.335Z,965.4
2022-09-28T01:50:56.004Z,965.5
2022-09-28T01:52:57.104Z,965.5
2022-09-28T01:54:58.723Z,965.4
2022-09-28T01:57:00.579Z,965.3
2022-09-28T01:59:01.905Z,965.4
2022-09-28T02:01:03.446Z,965.3
2022-09-28T02:03:04.420Z,965.3
2022-09-28T02:05:06.342Z,965.2
2022-09-28T02:07:07.576Z,965.3
2022-09-28T02:09:09.110Z,965.3
2022-09-28T02:11:10.855Z,965.2
2022-09-28T02:13:12.809Z,965.2
2022-09-28T02:15:13.875Z,965.2
2022-09-28T02:17:15.404Z,965.1
2022-09-28T02:19:17.374Z,965.1
2022-09-28T02:21:18.990Z,965
2022-09-28T02:23:20.789Z,965
2022-09-28T02:25:22.330Z,964.9
2022-09-28T02:27:23.889Z,964.9
2022-09-28T02:29:25.569Z,964.9
2022-09-28T02:31:27.042Z,964.9
2022-09-28T02:33:28.881Z,964.9
2022-09-28T02:35:30.544Z,964.9
2022-09-28T02:37:31.879Z,964.8
2022-09-28T02:39:32.970Z,964.9
2022-09-28T02:41:34.740Z,964.9
2022-09-28T02:43:36.004Z,964.8
2022-09-28T02:45:37.692Z,964.6
2022-09-28T02:47:38.941Z,964.6
2022-09-28T02:49:40.401Z,964.6
2022-09-28T02:51:42.176Z,964.5
2022-09-28T02:53:43.970Z,964.6
2022-09-28T02:55:45.252Z,964.4
2022-09-28T02:57:46.217Z,964.4
2022-09-28T02:59:47.283Z,964.4
2022-09-28T03:01:48.642Z,964.4
2022-09-28T03:03:50.189Z,964.3
2022-09-28T03:05:51.621Z,964.3
2022-09-28T03:07:52.682Z,964.3
2022-09-28T03:09:54.499Z,964.3
2022-09-28T03:11:55.907Z,964.4
2022-09-28T03:13:57.369Z,964.3
2022-09-28T03:15:58.394Z,964.4
2022-09-28T03:17:59.841Z,964.2
2022-09-28T03:20:01.572Z,964.2
2022-09-28T03:22:03.313Z,964.2
2022-09-28T03:24:04.919Z,964.2
2022-09-28T03:26:06.225Z,964.2
2022-09-28T03:28:07.594Z,964.2
2022-09-28T03:30:08.822Z,964.2
2022-09-28T03:32:10.141Z,964.1
2022-09-28T03:34:11.611Z,964.1
2022-09-28T03:36:13.297Z,964.2
2022-09-28T03:40:16.448Z,964
2022-09-28T03:42:17.530Z,964.1
2022-09-28T03:44:19.321Z,964.2
2022-09-28T03:46:20.901Z,964.1
2022-09-28T03:50:23.119Z,964.1
2022-09-28T03:52:24.504Z,964
2022-09-28T03:54:25.568Z,964
2022-09-28T03:56:26.853Z,964
2022-09-28T03:58:27.839Z,963.9
2022-09-28T04:00:29.399Z,963.8
2022-09-28T04:02:31.234Z,963.8
2022-09-28T04:04:33.115Z,963.8
2022-09-28T04:06:34.919Z,963.7
2022-09-28T04:08:36.486Z,963.8
2022-09-28T04:10:38.331Z,963.8
2022-09-28T04:12:39.622Z,963.9
2022-09-28T04:14:40.885Z,963.9
2022-09-28T04:16:41.947Z,964
2022-09-28T04:18:43.598Z,963.9
2022-09-28T04:20:44.951Z,963.9
2022-09-28T04:22:45.888Z,963.8
2022-09-28T04:24:47.600Z,963.8
2022-09-28T04:26:49.170Z,963.7
2022-09-28T04:28:50.229Z,963.7
2022-09-28T04:30:52.021Z,963.6
2022-09-28T04:32:53.409Z,963.5
2022-09-28T04:34:55.019Z,963.6
2022-09-28T04:36:56.143Z,963.8
2022-09-28T04:38:57.263Z,963.8
2022-09-28T04:40:58.711Z,963.7
2022-09-28T04:42:59.875Z,963.8
2022-09-28T04:45:01.624Z,963.8
2022-09-28T04:47:05.256Z,963.8
2022-09-28T04:49:05.055Z,963.8
2022-09-28T04:51:06.418Z,964
2022-09-28T04:55:09.214Z,963.9
2022-09-28T04:57:10.427Z,963.9
2022-09-28T04:59:12.254Z,963.9
2022-09-28T05:01:14.127Z,964
2022-09-28T05:03:15.980Z,964
2022-09-28T05:05:17.878Z,964
2022-09-28T05:07:19.223Z,964
2022-09-28T05:09:21.126Z,964.1
2022-09-28T05:11:22.923Z,964.1
2022-09-28T05:13:24.746Z,964
2022-09-28T05:15:26.494Z,964
2022-09-28T05:17:28.327Z,964
2022-09-28T05:21:31.458Z,964
2022-09-28T05:23:34.595Z,963.9
2022-09-28T05:25:34.558Z,963.9
2022-09-28T05:27:35.713Z,963.9
2022-09-28T05:29:37.577Z,963.9
2022-09-28T05:31:39.435Z,963.9
2022-09-28T05:33:40.487Z,964.1
2022-09-28T05:35:42.417Z,964
2022-09-28T05:37:44.021Z,964
2022-09-28T05:39:45.685Z,964
2022-09-28T05:41:47.347Z,964
2022-09-28T05:43:48.395Z,964
2022-09-28T05:47:51.387Z,963.9
2022-09-28T05:49:52.617Z,964
2022-09-28T05:53:54.773Z,964.1
2022-09-28T05:55:56.564Z,964.1
2022-09-28T05:57:58.310Z,964.1
2022-09-28T05:59:59.647Z,964.1
2022-09-28T06:02:01.631Z,964.2
2022-09-28T06:04:02.869Z,964.2
2022-09-28T06:06:04.243Z,964.2
2022-09-28T06:08:05.884Z,964.2
2022-09-28T06:10:07.063Z,964.2
2022-09-28T06:12:08.223Z,964.2
2022-09-28T06:14:09.162Z,964.3
2022-09-28T06:16:11.141Z,964.3
2022-09-28T06:18:12.871Z,964.3
2022-09-28T06:20:14.243Z,964.3
2022-09-28T06:22:16.137Z,964.3
2022-09-28T06:24:18.057Z,964.2
2022-09-28T06:26:19.048Z,964.4
2022-09-28T06:28:20.550Z,964.3
2022-09-28T06:30:22.414Z,964.3
2022-09-28T06:32:23.430Z,964.4
2022-09-28T06:36:26.559Z,964.5
2022-09-28T06:38:28.357Z,964.4
2022-09-28T06:40:29.346Z,964.5
2022-09-28T06:42:30.700Z,964.5
2022-09-28T06:44:31.904Z,964.5
2022-09-28T06:46:33.846Z,964.6
2022-09-28T06:48:35.734Z,964.7
2022-09-28T06:50:36.876Z,964.6
2022-09-28T06:52:38.718Z,964.6
2022-09-28T06:54:40.521Z,964.7
2022-09-28T06:56:41.618Z,964.7
2022-09-28T06:58:43.435Z,964.7
2022-09-28T07:00:45.236Z,964.8
2022-09-28T07:02:46.861Z,964.7
2022-09-28T07:04:47.888Z,964.8
2022-09-28T07:06:49.008Z,964.8
2022-09-28T07:08:57.688Z,964.9
2022-09-28T07:10:52.061Z,964.9
2022-09-28T07:12:53.821Z,964.9
2022-09-28T07:14:55.724Z,965
2022-09-28T07:17:12.093Z,964.9
2022-09-28T07:18:59.539Z,965
2022-09-28T07:21:00.737Z,965
2022-09-28T07:23:13.680Z,965
2022-09-28T07:25:02.827Z,965
2022-09-28T07:27:04.653Z,965.1
2022-09-28T07:29:05.989Z,965.1
2022-09-28T07:31:06.983Z,965.2
2022-09-28T07:33:07.988Z,965.1
2022-09-28T07:35:08.945Z,965.2
2022-09-28T07:37:10.263Z,965.2
2022-09-28T07:39:11.881Z,965.2
2022-09-28T07:41:13.010Z,965.3
2022-09-28T07:43:14.912Z,965.2
2022-09-28T07:45:16.161Z,965.2
2022-09-28T07:47:17.506Z,965.3
2022-09-28T07:49:26.744Z,965.3
2022-09-28T07:51:20.009Z,965.3
2022-09-28T07:53:21.562Z,965.4
2022-09-28T07:55:22.699Z,965.5
2022-09-28T07:57:23.638Z,965.5
2022-09-28T07:59:25.486Z,965.5
2022-09-28T08:01:26.607Z,965.6
2022-09-28T08:03:27.822Z,965.6
2022-09-28T08:04:11.619Z,965.6
2022-09-28T08:06:12.981Z,965.6
2022-09-28T08:08:14.859Z,965.7
2022-09-28T08:12:17.899Z,965.7
2022-09-28T08:14:19.677Z,965.8
2022-09-28T08:16:22.111Z,965.8
2022-09-28T08:18:23.368Z,965.8
2022-09-28T08:20:25.124Z,965.8
2022-09-28T08:22:26.208Z,965.8
2022-09-28T08:24:27.582Z,965.7
2022-09-28T08:26:29.438Z,965.7
2022-09-28T08:28:30.670Z,965.9
2022-09-28T08:30:31.990Z,965.9
2022-09-28T08:32:33.415Z,965.9
2022-09-28T08:34:34.828Z,965.8
2022-09-28T08:36:36.120Z,965.9
2022-09-28T08:38:37.022Z,965.8
2022-09-28T08:40:38.625Z,966
2022-09-28T08:42:39.554Z,966
2022-09-28T08:44:40.659Z,966.1
2022-09-28T08:46:41.967Z,966.1
2022-09-28T08:48:45.665Z,966
2022-09-28T08:50:45.137Z,966
2022-09-28T08:52:46.226Z,966
2022-09-28T08:54:47.669Z,966.1
2022-09-28T08:56:49.096Z,966
2022-09-28T08:58:50.087Z,966.1
2022-09-28T09:00:51.726Z,966.1
2022-09-28T09:02:53.018Z,966.1
2022-09-28T09:04:54.590Z,966.1
2022-09-28T09:06:55.900Z,966.2
2022-09-28T09:08:57.042Z,966.3
2022-09-28T09:10:58.397Z,966.3
2022-09-28T09:13:00.197Z,966.3
2022-09-28T09:15:01.699Z,966.3
2022-09-28T09:17:02.624Z,966.3
2022-09-28T09:19:03.881Z,966.3
2022-09-28T09:21:05.650Z,966.3
2022-09-28T09:23:07.127Z,966.3
2022-09-28T09:25:08.818Z,966.3
2022-09-28T09:27:10.112Z,966.4
2022-09-28T09:29:11.114Z,966.3
2022-09-28T09:31:12.737Z,966.5
2022-09-28T09:33:14.056Z,966.4
2022-09-28T09:35:15.589Z,966.4
2022-09-28T09:37:16.858Z,966.5
2022-09-28T09:39:18.004Z,966.5
2022-09-28T09:41:19.220Z,966.5
2022-09-28T09:43:20.801Z,966.5
2022-09-28T09:45:22.276Z,966.4
2022-09-28T09:47:23.741Z,966.5
2022-09-28T09:49:25.161Z,966.5
2022-09-28T09:51:26.553Z,966.5
2022-09-28T09:53:28.156Z,966.5
2022-09-28T09:55:30.142Z,966.6
2022-09-28T09:57:30.741Z,966.5
2022-09-28T09:59:32.279Z,966.6
2022-09-28T10:01:33.953Z,966.6
2022-09-28T10:03:35.368Z,966.6
2022-09-28T10:05:37.102Z,966.5
2022-09-28T10:07:41.438Z,966.6
2022-09-28T10:09:39.903Z,966.6
2022-09-28T10:11:41.297Z,966.5
2022-09-28T10:13:42.880Z,966.6
2022-09-28T10:15:43.865Z,966.5
2022-09-28T10:17:45.182Z,966.5
2022-09-28T10:19:46.525Z,966.5
2022-09-28T10:21:47.386Z,966.5
2022-09-28T10:23:48.744Z,966.6
2022-09-28T10:25:50.451Z,966.6
2022-09-28T10:27:51.497Z,966.5
2022-09-28T10:29:52.520Z,966.6
2022-09-28T10:31:53.614Z,966.6
2022-09-28T10:33:54.515Z,966.7
2022-09-28T10:37:57.038Z,966.7
2022-09-28T10:39:58.864Z,966.7
2022-09-28T10:42:00.303Z,966.7
2022-09-28T10:44:01.981Z,966.8
2022-09-28T10:46:03.307Z,966.6
2022-09-28T10:48:04.810Z,966.7
2022-09-28T10:50:06.228Z,966.7
2022-09-28T10:52:07.438Z,966.7
2022-09-28T10:54:08.470Z,966.8
2022-09-28T10:56:09.953Z,966.8
2022-09-28T10:58:11.802Z,966.7
2022-09-28T11:00:14.315Z,966.8
2022-09-28T11:02:15.260Z,966.7
2022-09-28T11:04:16.517Z,966.7
2022-09-28T11:06:18.321Z,966.5
2022-09-28T11:08:19.770Z,966.6
2022-09-28T11:10:21.579Z,966.7
2022-09-28T11:12:22.496Z,966.7
2022-09-28T11:14:23.806Z,966.6
2022-09-28T11:16:25.038Z,966.6
2022-09-28T11:18:26.125Z,966.7
2022-09-28T11:20:28.583Z,966.6
2022-09-28T11:22:29.580Z,966.7
2022-09-28T11:24:31.194Z,966.5
2022-09-28T11:26:32.574Z,966.5
2022-09-28T11:28:33.702Z,966.6
2022-09-28T11:30:35.065Z,966.6
2022-09-28T11:34:57.820Z,966.6
2022-09-28T11:36:38.430Z,966.6
2022-09-28T11:38:39.850Z,966.6
2022-09-28T11:40:41.342Z,966.5
2022-09-28T11:42:42.176Z,966.6
2022-09-28T11:44:44.339Z,966.6
2022-09-28T11:46:45.391Z,966.6
2022-09-28T11:48:46.576Z,966.6
2022-09-28T11:50:48.280Z,966.8
2022-09-28T11:52:49.354Z,966.7
2022-09-28T11:54:50.827Z,966.7
2022-09-28T11:56:52.116Z,966.7
2022-09-28T11:58:53.407Z,966.8
2022-09-28T12:00:54.437Z,966.8
2022-09-28T12:02:56.129Z,966.9
2022-09-28T12:04:57.554Z,966.9
2022-09-28T12:06:58.507Z,966.8
2022-09-28T12:08:59.450Z,966.8
2022-09-28T12:11:01.210Z,966.9
2022-09-28T12:13:02.413Z,967
2022-09-28T12:15:03.970Z,967
2022-09-28T12:17:07.840Z,966.9
2022-09-28T12:19:06.407Z,966.9
2022-09-28T12:21:07.810Z,967
2022-09-28T12:23:08.919Z,966.9
2022-09-28T12:25:10.028Z,966.9
2022-09-28T12:27:11.493Z,966.9
2022-09-28T12:29:12.690Z,967
2022-09-28T12:31:14.635Z,966.9
2022-09-28T12:33:15.467Z,966.9
2022-09-28T12:35:16.850Z,966.9
2022-09-28T12:37:18.012Z,966.9
2022-09-28T12:39:27.399Z,966.7
2022-09-28T12:41:19.902Z,966.7
2022-09-28T12:43:21.481Z,966.8
2022-09-28T12:45:22.346Z,966.7
2022-09-28T12:47:23.415Z,966.7
2022-09-28T12:50:07.520Z,966.7
2022-09-28T12:51:25.923Z,966.7
2022-09-28T12:53:27.443Z,966.7
2022-09-28T12:55:28.993Z,966.7
2022-09-28T12:59:31.052Z,966.8
2022-09-28T13:01:32.679Z,966.8
2022-09-28T13:03:34.403Z,966.7
2022-09-28T13:05:35.373Z,966.8
2022-09-28T13:07:36.447Z,966.8
2022-09-28T13:09:37.357Z,966.9
2022-09-28T13:11:38.598Z,966.9
2022-09-28T13:13:40.573Z,966.9
2022-09-28T13:15:41.922Z,966.9
2022-09-28T13:17:43.417Z,966.9
2022-09-28T13:19:45.275Z,966.8
2022-09-28T13:21:46.166Z,967
2022-09-28T13:23:47.619Z,967
2022-09-28T13:25:49.017Z,966.9
2022-09-28T13:27:49.974Z,966.9
2022-09-28T13:29:51.641Z,966.8
2022-09-28T13:31:53.023Z,966.8
2022-09-28T13:33:53.943Z,966.7
2022-09-28T13:35:55.039Z,966.7
2022-09-28T13:37:56.422Z,966.8
2022-09-28T13:39:58.134Z,966.7
2022-09-28T13:41:59.641Z,966.7
2022-09-28T13:44:01.149Z,966.8
2022-09-28T13:46:02.331Z,966.8
2022-09-28T13:48:03.208Z,966.8
2022-09-28T13:50:04.851Z,966.8
2022-09-28T13:52:05.902Z,966.9
2022-09-28T13:54:07.303Z,966.9
2022-09-28T13:56:08.618Z,966.9
2022-09-28T13:58:10.145Z,966.9
2022-09-28T14:00:11.113Z,966.9
2022-09-28T14:02:12.754Z,966.9
2022-09-28T14:04:14.272Z,966.9
2022-09-28T14:08:16.472Z,967
2022-09-28T14:10:18.312Z,967.1
2022-09-28T14:12:19.272Z,967
2022-09-28T14:14:20.839Z,967.1
2022-09-28T14:16:21.943Z,967.1
2022-09-28T14:18:22.860Z,967.1
2022-09-28T14:20:24.148Z,967.1
2022-09-28T14:22:25.070Z,967
2022-09-28T14:24:26.956Z,966.9
2022-09-28T14:26:28.635Z,966.9
2022-09-28T14:28:30.450Z,966.9
2022-09-28T14:30:31.532Z,966.9
2022-09-28T14:32:32.831Z,966.9
2022-09-28T14:34:34.456Z,966.9
2022-09-28T14:36:35.730Z,966.9
2022-09-28T14:40:38.456Z,966.9
2022-09-28T14:42:39.798Z,966.9
2022-09-28T14:44:41.566Z,967
2022-09-28T14:46:42.955Z,967
2022-09-28T14:48:44.720Z,967.1
2022-09-28T14:51:48.026Z,967.1
2022-09-28T14:53:48.909Z,967.1
2022-09-28T14:55:49.831Z,967.1
2022-09-28T14:57:50.926Z,967.2
2022-09-28T14:59:52.008Z,967.2
2022-09-28T15:01:54.428Z,967.2
2022-09-28T15:03:55.422Z,967.2
2022-09-28T15:05:56.580Z,967.2
2022-09-28T15:07:57.947Z,967.2
2022-09-28T15:09:59.464Z,967.2
2022-09-28T15:12:00.797Z,967.2
2022-09-28T15:14:02.593Z,967.3
2022-09-28T15:18:05.839Z,967.2
2022-09-28T15:20:07.424Z,967.2
2022-09-28T15:22:08.281Z,967.2
2022-09-28T15:24:10.085Z,967.3
2022-09-28T15:26:11.384Z,967.4
2022-09-28T15:28:13.178Z,967.4
2022-09-28T15:30:14.643Z,967.2
2022-09-28T15:32:15.534Z,967.3
2022-09-28T15:34:16.886Z,967.3
2022-09-28T15:36:18.581Z,967.3
2022-09-28T15:38:20.099Z,967.4
2022-09-28T15:40:21.040Z,967.3
2022-09-28T15:42:22.357Z,967.4
2022-09-28T15:44:23.522Z,967.4
2022-09-28T15:46:24.543Z,967.4
2022-09-28T15:48:26.260Z,967.4
2022-09-28T15:50:27.519Z,967.4
2022-09-28T15:52:28.798Z,967.4
2022-09-28T15:54:29.706Z,967.5
2022-09-28T15:56:31.148Z,967.5
2022-09-28T16:00:33.557Z,967.5
2022-09-28T16:02:35.096Z,967.6
2022-09-28T16:04:36.702Z,967.5
2022-09-28T16:06:37.764Z,967.5
2022-09-28T16:08:39.567Z,967.6
2022-09-28T16:10:40.579Z,967.6
2022-09-28T16:12:41.579Z,967.6
2022-09-28T16:14:42.694Z,967.6
2022-09-28T16:16:46.463Z,967.7
2022-09-28T16:18:45.545Z,967.7
2022-09-28T16:20:46.652Z,967.7
2022-09-28T16:22:47.884Z,967.7
2022-09-28T16:24:49.450Z,967.7
2022-09-28T16:26:50.391Z,967.8
2022-09-28T16:28:52.202Z,967.8
2022-09-28T16:30:53.986Z,967.8
2022-09-28T16:32:55.002Z,967.8
2022-09-28T16:36:57.886Z,967.8
2022-09-28T16:38:59.660Z,967.9
2022-09-28T16:41:01.537Z,967.8
2022-09-28T16:43:03.022Z,967.9
2022-09-28T16:45:04.077Z,967.9
2022-09-28T16:47:05.683Z,967.9
2022-09-28T16:49:07.494Z,968
2022-09-28T16:51:08.682Z,968
2022-09-28T16:53:10.573Z,968
2022-09-28T16:55:29.192Z,968
2022-09-28T16:57:13.683Z,968
2022-09-28T16:59:14.833Z,968
2022-09-28T17:01:15.851Z,968
2022-09-28T17:03:16.871Z,968.1
2022-09-28T17:05:18.154Z,968.1
2022-09-28T17:07:19.679Z,968.2
2022-09-28T17:09:20.804Z,968.1
2022-09-28T17:11:24.812Z,968.1
2022-09-28T17:13:24.195Z,968.1
2022-09-28T17:15:25.440Z,968.1
2022-09-28T17:17:26.864Z,968.1
2022-09-28T17:21:30.553Z,968.2
2022-09-28T17:25:33.831Z,968.2
2022-09-28T17:27:35.078Z,968.2
2022-09-28T17:29:37.004Z,968.1
2022-09-28T17:31:38.510Z,968.2
2022-09-28T17:33:40.397Z,968.2
2022-09-28T17:35:42.064Z,968.3
2022-09-28T17:37:43.741Z,968.2
2022-09-28T17:39:45.532Z,968.2
2022-09-28T17:41:47.407Z,968.2
2022-09-28T17:43:48.720Z,968.2
2022-09-28T17:45:50.480Z,968.1
2022-09-28T17:47:51.575Z,968.3
2022-09-28T17:49:52.816Z,968.2
2022-09-28T17:51:54.261Z,968.2
2022-09-28T17:53:55.781Z,968.3
2022-09-28T17:55:57.703Z,968.3
2022-09-28T17:57:58.929Z,968.3
2022-09-28T18:00:00.226Z,968.3
2022-09-28T18:02:02.606Z,968.4
2022-09-28T18:04:03.184Z,968.4
2022-09-28T18:06:04.344Z,968.4
2022-09-28T18:08:05.692Z,968.3
2022-09-28T18:10:07.048Z,968.3
2022-09-28T18:12:08.330Z,968.4
2022-09-28T18:14:11.282Z,968.4
2022-09-28T18:16:11.224Z,968.4
2022-09-28T18:18:12.410Z,968.5
2022-09-28T18:20:13.601Z,968.5
2022-09-28T18:22:15.452Z,968.5
2022-09-28T18:24:16.598Z,968.6
2022-09-28T18:26:18.153Z,968.5
2022-09-28T18:28:20.077Z,968.5
2022-09-28T18:30:21.764Z,968.6
2022-09-28T18:32:23.698Z,968.6
2022-09-28T18:34:24.891Z,968.6
2022-09-28T18:36:25.886Z,968.6
2022-09-28T18:38:27.589Z,968.6
2022-09-28T18:40:28.685Z,968.7
2022-09-28T18:42:30.505Z,968.7
2022-09-28T18:44:31.788Z,968.7
2022-09-28T18:46:33.503Z,968.8
2022-09-28T18:48:35.166Z,968.7
2022-09-28T18:50:36.706Z,968.8
2022-09-28T18:52:38.105Z,968.8
2022-09-28T18:54:39.913Z,968.8
2022-09-28T18:56:41.321Z,968.8
2022-09-28T18:58:43.005Z,968.8
2022-09-28T19:00:44.698Z,968.8
2022-09-28T19:02:46.362Z,968.9
2022-09-28T19:04:47.497Z,968.8
2022-09-28T19:06:49.125Z,968.9
2022-09-28T19:08:51.087Z,968.9
2022-09-28T19:10:52.757Z,968.9
2022-09-28T19:12:54.363Z,968.9
2022-09-28T19:14:55.684Z,969
2022-09-28T19:16:56.947Z,968.9
2022-09-28T19:18:57.961Z,969
2022-09-28T19:20:59.495Z,969
2022-09-28T19:23:01.341Z,969
2022-09-28T19:25:02.484Z,969.1
2022-09-28T19:27:03.864Z,969.1
2022-09-28T19:29:05.016Z,969.1
2022-09-28T19:31:06.386Z,969.1
2022-09-28T19:33:08.014Z,969.1
2022-09-28T19:35:09.274Z,969.1
2022-09-28T19:37:11.328Z,969.2
2022-09-28T19:39:12.333Z,969.2
2022-09-28T19:41:13.385Z,969.2
2022-09-28T19:43:14.401Z,969.3
2022-09-28T19:45:15.391Z,969.3
2022-09-28T19:49:17.832Z,969.3
2022-09-28T19:51:19.086Z,969.4
2022-09-28T19:53:20.973Z,969.3
2022-09-28T19:55:22.396Z,969.4
2022-09-28T19:57:23.691Z,969.4
2022-09-28T19:59:24.939Z,969.3
2022-09-28T20:01:26.189Z,969.4
2022-09-28T20:03:27.992Z,969.4
2022-09-28T20:05:29.288Z,969.4
2022-09-28T20:07:30.785Z,969.4
2022-09-28T20:11:34.167Z,969.5
2022-09-28T20:13:35.238Z,969.5
2022-09-28T20:15:37.203Z,969.5
2022-09-28T20:17:38.678Z,969.5
2022-09-28T20:19:40.443Z,969.4
2022-09-28T20:21:42.398Z,969.5
2022-09-28T20:23:43.573Z,969.5
2022-09-28T20:25:44.700Z,969.5
2022-09-28T20:27:45.973Z,969.6
2022-09-28T20:29:47.236Z,969.6
2022-09-28T20:31:49.188Z,969.5
2022-09-28T20:33:50.624Z,969.6
2022-09-28T20:35:51.849Z,969.7
2022-09-28T20:37:53.766Z,969.5
2022-09-28T20:39:55.424Z,969.6
2022-09-28T20:41:57.373Z,969.7
2022-09-28T20:44:02.771Z,969.6
2022-09-28T20:46:01.375Z,969.6
2022-09-28T20:48:02.434Z,969.7
2022-09-28T20:50:03.380Z,969.6
2022-09-28T20:54:05.935Z,969.6
2022-09-28T20:56:07.327Z,969.7
2022-09-28T20:58:08.387Z,969.7
2022-09-28T21:00:09.394Z,969.6
2022-09-28T21:02:10.623Z,969.6
2022-09-28T21:04:12.032Z,969.6
2022-09-28T21:06:13.315Z,969.6
2022-09-28T21:08:14.403Z,969.5
2022-09-28T21:10:16.172Z,969.6
2022-09-28T21:12:17.947Z,969.6
2022-09-28T21:14:19.430Z,969.6
2022-09-28T21:16:20.705Z,969.7
2022-09-28T21:18:22.540Z,969.6
2022-09-28T21:20:23.994Z,969.6
2022-09-28T21:22:25.964Z,969.6
2022-09-28T21:24:27.902Z,969.6
2022-09-28T21:26:29.016Z,969.6
2022-09-28T21:28:30.180Z,969.6
2022-09-28T21:30:32.015Z,969.6
2022-09-28T21:32:33.068Z,969.5
2022-09-28T21:34:34.059Z,969.5
2022-09-28T21:35:17.937Z,969.5
2022-09-28T21:37:19.726Z,969.5
2022-09-28T21:39:21.139Z,969.5
2022-09-28T21:41:22.777Z,969.5
2022-09-28T21:43:23.891Z,969.5
2022-09-28T21:45:25.433Z,969.5
2022-09-28T21:47:26.925Z,969.5
2022-09-28T21:49:27.940Z,969.4
2022-09-28T21:51:29.726Z,969.5
2022-09-28T21:53:30.800Z,969.5
2022-09-28T21:55:32.621Z,969.6
2022-09-28T21:57:34.236Z,969.6
2022-09-28T21:59:35.458Z,969.5
2022-09-28T22:01:36.519Z,969.6
2022-09-28T22:03:38.368Z,969.5
2022-09-28T22:07:41.188Z,969.6
2022-09-28T22:09:42.332Z,969.5
2022-09-28T22:11:43.527Z,969.6
2022-09-28T22:13:45.375Z,969.5
2022-09-28T22:15:46.847Z,969.5
2022-09-28T22:17:48.648Z,969.5
2022-09-28T22:19:50.120Z,969.5
2022-09-28T22:21:51.861Z,969.4
2022-09-28T22:23:53.089Z,969.5
2022-09-28T22:25:54.554Z,969.6
2022-09-28T22:27:56.481Z,969.6
2022-09-28T22:29:58.118Z,969.5
2022-09-28T22:34:01.217Z,969.5
2022-09-28T22:36:03.154Z,969.6
2022-09-28T22:38:04.318Z,969.4
2022-09-28T22:40:05.730Z,969.5
2022-09-28T22:42:07.059Z,969.5
2022-09-28T22:44:08.821Z,969.5
2022-09-28T22:46:10.444Z,969.6
2022-09-28T22:48:11.556Z,969.6
2022-09-28T22:50:12.781Z,969.6
2022-09-28T22:52:14.021Z,969.5
2022-09-28T22:54:15.206Z,969.5
2022-09-28T22:56:18.634Z,969.5
2022-09-28T22:58:18.251Z,969.4
2022-09-28T23:00:19.692Z,969.5
2022-09-28T23:02:20.857Z,969.5
2022-09-28T23:04:21.873Z,969.5
2022-09-28T23:06:23.364Z,969.5
2022-09-28T23:08:24.415Z,969.5
2022-09-28T23:10:25.528Z,969.5
2022-09-28T23:12:26.655Z,969.5
2022-09-28T23:14:28.334Z,969.5
2022-09-28T23:16:29.498Z,969.5
2022-09-28T23:18:31.289Z,969.5
2022-09-28T23:20:32.571Z,969.5
2022-09-28T23:22:34.152Z,969.5
2022-09-28T23:26:37.439Z,969.5
2022-09-28T23:28:39.279Z,969.6
2022-09-28T23:30:40.438Z,969.5
2022-09-28T23:32:41.483Z,969.5
2022-09-28T23:34:43.187Z,969.5
2022-09-28T23:36:44.538Z,969.4
2022-09-28T23:38:46.432Z,969.4
2022-09-28T23:40:47.537Z,969.4
2022-09-28T23:42:49.236Z,969.4
2022-09-28T23:44:50.962Z,969.5
2022-09-28T23:46:52.336Z,969.5
2022-09-28T23:48:54.098Z,969.5
2022-09-28T23:50:55.822Z,969.4
2022-09-28T23:52:56.962Z,969.4
2022-09-28T23:54:58.214Z,969.4
2022-09-28T23:56:59.207Z,969.4
2022-09-28T23:59:00.545Z,969.4
